sensor_id;sensor_type;location;lat;lon;timestamp;P1;durP1;ratioP1;P2;durP2;ratioP2
72127;SDS011;60000;51.030;7.024;2023-12-07T00:00:15;11.00;;;5.10;;
72127;SDS011;60000;51.030;7.024;2023-12-07T00:02:41;8.67;;;4.10;;
72127;SDS011;60000;51.030;7.024;2023-12-07T00:05:06;10.30;;;4.27;;
72127;SDS011;60000;51.030;7.024;2023-12-07T00:07:33;10.25;;;4.57;;
72127;SDS011;60000;51.030;7.024;2023-12-07T00:09:58;9.97;;;4.20;;
72127;SDS011;60000;51.030;7.024;2023-12-07T00:12:23;8.33;;;3.60;;
72127;SDS011;60000;51.030;7.024;2023-12-07T00:14:49;8.17;;;3.67;;
72127;SDS011;60000;51.030;7.024;2023-12-07T00:17:14;8.23;;;3.80;;
72127;SDS011;60000;51.030;7.024;2023-12-07T00:19:39;8.43;;;3.95;;
72127;SDS011;60000;51.030;7.024;2023-12-07T00:22:05;9.47;;;3.70;;
72127;SDS011;60000;51.030;7.024;2023-12-07T00:24:30;8.27;;;3.70;;
72127;SDS011;60000;51.030;7.024;2023-12-07T00:26:55;11.43;;;5.23;;
72127;SDS011;60000;51.030;7.024;2023-12-07T00:29:21;8.93;;;4.47;;
72127;SDS011;60000;51.030;7.024;2023-12-07T00:31:46;8.43;;;3.30;;
72127;SDS011;60000;51.030;7.024;2023-12-07T00:34:11;9.55;;;4.35;;
72127;SDS011;60000;51.030;7.024;2023-12-07T00:36:37;9.03;;;4.13;;
72127;SDS011;60000;51.030;7.024;2023-12-07T00:39:04;8.77;;;3.78;;
72127;SDS011;60000;51.030;7.024;2023-12-07T00:41:29;7.97;;;3.40;;
72127;SDS011;60000;51.030;7.024;2023-12-07T00:43:55;13.60;;;6.50;;
72127;SDS011;60000;51.030;7.024;2023-12-07T00:46:20;10.77;;;4.97;;
72127;SDS011;60000;51.030;7.024;2023-12-07T00:48:45;11.23;;;4.10;;
72127;SDS011;60000;51.030;7.024;2023-12-07T00:51:10;10.80;;;5.10;;
72127;SDS011;60000;51.030;7.024;2023-12-07T00:53:36;11.25;;;4.95;;
72127;SDS011;60000;51.030;7.024;2023-12-07T00:56:02;9.67;;;4.83;;
72127;SDS011;60000;51.030;7.024;2023-12-07T00:58:29;12.57;;;5.00;;
72127;SDS011;60000;51.030;7.024;2023-12-07T01:00:54;11.67;;;5.80;;
72127;SDS011;60000;51.030;7.024;2023-12-07T01:03:20;9.43;;;4.30;;
72127;SDS011;60000;51.030;7.024;2023-12-07T01:05:45;10.37;;;4.60;;
72127;SDS011;60000;51.030;7.024;2023-12-07T01:08:10;9.82;;;4.00;;
72127;SDS011;60000;51.030;7.024;2023-12-07T01:10:36;10.85;;;4.50;;
72127;SDS011;60000;51.030;7.024;2023-12-07T01:13:01;8.20;;;3.90;;
72127;SDS011;60000;51.030;7.024;2023-12-07T01:15:27;15.67;;;7.87;;
72127;SDS011;60000;51.030;7.024;2023-12-07T01:17:52;11.17;;;5.20;;
72127;SDS011;60000;51.030;7.024;2023-12-07T01:20:17;11.57;;;5.13;;
72127;SDS011;60000;51.030;7.024;2023-12-07T01:22:42;9.97;;;4.13;;
72127;SDS011;60000;51.030;7.024;2023-12-07T01:25:08;10.60;;;5.05;;
72127;SDS011;60000;51.030;7.024;2023-12-07T01:27:33;11.45;;;5.13;;
72127;SDS011;60000;51.030;7.024;2023-12-07T01:29:59;10.27;;;4.83;;
72127;SDS011;60000;51.030;7.024;2023-12-07T01:32:24;9.40;;;4.80;;
72127;SDS011;60000;51.030;7.024;2023-12-07T01:34:50;10.17;;;4.40;;
72127;SDS011;60000;51.030;7.024;2023-12-07T01:37:15;10.07;;;4.93;;
72127;SDS011;60000;51.030;7.024;2023-12-07T01:39:43;9.90;;;4.70;;
72127;SDS011;60000;51.030;7.024;2023-12-07T01:42:09;11.05;;;5.25;;
72127;SDS011;60000;51.030;7.024;2023-12-07T01:44:36;9.25;;;4.30;;
72127;SDS011;60000;51.030;7.024;2023-12-07T01:47:01;11.47;;;5.30;;
72127;SDS011;60000;51.030;7.024;2023-12-07T01:49:27;9.52;;;4.10;;
72127;SDS011;60000;51.030;7.024;2023-12-07T01:51:53;12.43;;;5.87;;
72127;SDS011;60000;51.030;7.024;2023-12-07T01:54:19;11.73;;;5.18;;
72127;SDS011;60000;51.030;7.024;2023-12-07T01:56:44;9.63;;;4.45;;
72127;SDS011;60000;51.030;7.024;2023-12-07T01:59:10;9.52;;;4.35;;
72127;SDS011;60000;51.030;7.024;2023-12-07T02:01:36;10.52;;;4.82;;
72127;SDS011;60000;51.030;7.024;2023-12-07T02:04:02;10.20;;;4.70;;
72127;SDS011;60000;51.030;7.024;2023-12-07T02:06:27;10.00;;;5.00;;
72127;SDS011;60000;51.030;7.024;2023-12-07T02:08:53;10.65;;;4.70;;
72127;SDS011;60000;51.030;7.024;2023-12-07T02:11:18;19.07;;;8.77;;
72127;SDS011;60000;51.030;7.024;2023-12-07T02:13:44;13.77;;;7.10;;
72127;SDS011;60000;51.030;7.024;2023-12-07T02:16:21;12.37;;;5.77;;
72127;SDS011;60000;51.030;7.024;2023-12-07T02:21:22;11.00;;;5.13;;
72127;SDS011;60000;51.030;7.024;2023-12-07T02:23:53;20.42;;;8.90;;
72127;SDS011;60000;51.030;7.024;2023-12-07T02:29:05;13.43;;;5.73;;
72127;SDS011;60000;51.030;7.024;2023-12-07T02:31:31;11.67;;;5.43;;
72127;SDS011;60000;51.030;7.024;2023-12-07T02:33:56;18.00;;;9.27;;
72127;SDS011;60000;51.030;7.024;2023-12-07T02:36:22;21.37;;;10.27;;
72127;SDS011;60000;51.030;7.024;2023-12-07T02:38:51;20.75;;;10.10;;
72127;SDS011;60000;51.030;7.024;2023-12-07T02:41:21;21.92;;;10.13;;
72127;SDS011;60000;51.030;7.024;2023-12-07T02:43:47;22.20;;;11.10;;
72127;SDS011;60000;51.030;7.024;2023-12-07T02:46:12;28.13;;;11.60;;
72127;SDS011;60000;51.030;7.024;2023-12-07T02:48:38;23.93;;;11.37;;
72127;SDS011;60000;51.030;7.024;2023-12-07T02:51:03;23.27;;;10.60;;
72127;SDS011;60000;51.030;7.024;2023-12-07T02:53:28;25.20;;;11.60;;
72127;SDS011;60000;51.030;7.024;2023-12-07T02:55:54;21.77;;;10.77;;
72127;SDS011;60000;51.030;7.024;2023-12-07T02:58:19;20.33;;;9.73;;
72127;SDS011;60000;51.030;7.024;2023-12-07T03:00:44;22.60;;;9.55;;
72127;SDS011;60000;51.030;7.024;2023-12-07T03:03:10;17.93;;;9.30;;
72127;SDS011;60000;51.030;7.024;2023-12-07T03:05:35;18.47;;;8.93;;
72127;SDS011;60000;51.030;7.024;2023-12-07T03:08:00;19.23;;;10.10;;
72127;SDS011;60000;51.030;7.024;2023-12-07T03:10:26;16.70;;;8.43;;
72127;SDS011;60000;51.030;7.024;2023-12-07T03:12:51;17.27;;;8.67;;
72127;SDS011;60000;51.030;7.024;2023-12-07T03:15:16;16.23;;;8.43;;
72127;SDS011;60000;51.030;7.024;2023-12-07T03:17:42;15.23;;;6.97;;
72127;SDS011;60000;51.030;7.024;2023-12-07T03:20:08;14.05;;;7.65;;
72127;SDS011;60000;51.030;7.024;2023-12-07T03:22:35;18.65;;;8.27;;
72127;SDS011;60000;51.030;7.024;2023-12-07T03:25:00;16.70;;;8.77;;
72127;SDS011;60000;51.030;7.024;2023-12-07T03:27:26;16.60;;;8.40;;
72127;SDS011;60000;51.030;7.024;2023-12-07T03:29:52;15.88;;;7.28;;
72127;SDS011;60000;51.030;7.024;2023-12-07T03:32:18;18.87;;;9.17;;
72127;SDS011;60000;51.030;7.024;2023-12-07T03:34:43;17.27;;;9.40;;
72127;SDS011;60000;51.030;7.024;2023-12-07T03:37:08;18.20;;;8.63;;
72127;SDS011;60000;51.030;7.024;2023-12-07T03:39:33;19.50;;;8.97;;
72127;SDS011;60000;51.030;7.024;2023-12-07T03:41:59;21.05;;;10.35;;
72127;SDS011;60000;51.030;7.024;2023-12-07T03:44:24;15.97;;;8.33;;
72127;SDS011;60000;51.030;7.024;2023-12-07T03:46:51;16.10;;;7.17;;
72127;SDS011;60000;51.030;7.024;2023-12-07T03:49:17;15.45;;;7.95;;
72127;SDS011;60000;51.030;7.024;2023-12-07T03:51:42;14.27;;;6.97;;
72127;SDS011;60000;51.030;7.024;2023-12-07T03:54:07;14.00;;;6.73;;
72127;SDS011;60000;51.030;7.024;2023-12-07T03:56:32;13.47;;;6.87;;
72127;SDS011;60000;51.030;7.024;2023-12-07T03:58:58;13.38;;;6.47;;
72127;SDS011;60000;51.030;7.024;2023-12-07T04:01:24;13.03;;;6.60;;
72127;SDS011;60000;51.030;7.024;2023-12-07T04:03:51;15.38;;;7.30;;
72127;SDS011;60000;51.030;7.024;2023-12-07T04:06:17;14.03;;;6.73;;
72127;SDS011;60000;51.030;7.024;2023-12-07T04:08:43;13.35;;;5.90;;
72127;SDS011;60000;51.030;7.024;2023-12-07T04:11:08;12.05;;;5.78;;
72127;SDS011;60000;51.030;7.024;2023-12-07T04:13:34;14.38;;;7.15;;
72127;SDS011;60000;51.030;7.024;2023-12-07T04:15:59;14.70;;;7.03;;
72127;SDS011;60000;51.030;7.024;2023-12-07T04:18:24;13.03;;;6.57;;
72127;SDS011;60000;51.030;7.024;2023-12-07T04:20:50;16.40;;;8.53;;
72127;SDS011;60000;51.030;7.024;2023-12-07T04:23:15;16.90;;;7.97;;
72127;SDS011;60000;51.030;7.024;2023-12-07T04:25:40;20.53;;;10.37;;
72127;SDS011;60000;51.030;7.024;2023-12-07T04:28:06;19.33;;;9.13;;
72127;SDS011;60000;51.030;7.024;2023-12-07T04:30:31;22.80;;;11.50;;
72127;SDS011;60000;51.030;7.024;2023-12-07T04:32:56;20.43;;;11.00;;
72127;SDS011;60000;51.030;7.024;2023-12-07T04:35:22;19.07;;;9.27;;
72127;SDS011;60000;51.030;7.024;2023-12-07T04:37:47;22.37;;;11.60;;
72127;SDS011;60000;51.030;7.024;2023-12-07T04:40:12;19.33;;;10.13;;
72127;SDS011;60000;51.030;7.024;2023-12-07T04:42:38;18.73;;;9.30;;
72127;SDS011;60000;51.030;7.024;2023-12-07T04:45:03;18.33;;;8.63;;
72127;SDS011;60000;51.030;7.024;2023-12-07T04:47:29;19.77;;;10.10;;
72127;SDS011;60000;51.030;7.024;2023-12-07T04:49:54;16.53;;;8.63;;
72127;SDS011;60000;51.030;7.024;2023-12-07T04:52:20;18.33;;;9.47;;
72127;SDS011;60000;51.030;7.024;2023-12-07T04:54:45;16.17;;;8.03;;
72127;SDS011;60000;51.030;7.024;2023-12-07T04:57:10;16.57;;;8.00;;
72127;SDS011;60000;51.030;7.024;2023-12-07T04:59:36;15.83;;;7.90;;
72127;SDS011;60000;51.030;7.024;2023-12-07T05:02:01;15.57;;;8.48;;
72127;SDS011;60000;51.030;7.024;2023-12-07T05:04:27;17.30;;;10.10;;
72127;SDS011;60000;51.030;7.024;2023-12-07T05:06:52;19.27;;;10.57;;
72127;SDS011;60000;51.030;7.024;2023-12-07T05:09:17;13.73;;;7.87;;
72127;SDS011;60000;51.030;7.024;2023-12-07T05:11:43;17.00;;;8.70;;
72127;SDS011;60000;51.030;7.024;2023-12-07T05:14:10;20.40;;;10.60;;
72127;SDS011;60000;51.030;7.024;2023-12-07T05:16:35;18.60;;;9.30;;
72127;SDS011;60000;51.030;7.024;2023-12-07T05:19:00;21.97;;;10.67;;
72127;SDS011;60000;51.030;7.024;2023-12-07T05:21:26;20.33;;;10.17;;
72127;SDS011;60000;51.030;7.024;2023-12-07T05:23:51;18.30;;;9.40;;
72127;SDS011;60000;51.030;7.024;2023-12-07T05:26:16;16.75;;;9.07;;
72127;SDS011;60000;51.030;7.024;2023-12-07T05:28:42;19.77;;;9.35;;
72127;SDS011;60000;51.030;7.024;2023-12-07T05:31:08;15.73;;;7.90;;
72127;SDS011;60000;51.030;7.024;2023-12-07T05:33:34;15.60;;;7.82;;
72127;SDS011;60000;51.030;7.024;2023-12-07T05:35:59;12.40;;;6.63;;
72127;SDS011;60000;51.030;7.024;2023-12-07T05:38:25;13.47;;;6.53;;
72127;SDS011;60000;51.030;7.024;2023-12-07T05:40:50;12.15;;;5.90;;
72127;SDS011;60000;51.030;7.024;2023-12-07T05:43:16;18.95;;;9.00;;
72127;SDS011;60000;51.030;7.024;2023-12-07T05:45:41;14.47;;;6.73;;
72127;SDS011;60000;51.030;7.024;2023-12-07T05:48:06;11.07;;;5.87;;
72127;SDS011;60000;51.030;7.024;2023-12-07T05:50:32;11.97;;;6.50;;
72127;SDS011;60000;51.030;7.024;2023-12-07T05:52:57;13.30;;;6.70;;
72127;SDS011;60000;51.030;7.024;2023-12-07T05:55:22;11.20;;;5.83;;
72127;SDS011;60000;51.030;7.024;2023-12-07T05:57:48;13.13;;;6.50;;
72127;SDS011;60000;51.030;7.024;2023-12-07T06:00:13;12.00;;;5.90;;
72127;SDS011;60000;51.030;7.024;2023-12-07T06:02:41;11.60;;;5.20;;
72127;SDS011;60000;51.030;7.024;2023-12-07T06:05:06;10.77;;;5.43;;
72127;SDS011;60000;51.030;7.024;2023-12-07T06:07:32;10.68;;;5.10;;
72127;SDS011;60000;51.030;7.024;2023-12-07T06:09:57;10.20;;;4.90;;
72127;SDS011;60000;51.030;7.024;2023-12-07T06:12:22;10.37;;;5.17;;
72127;SDS011;60000;51.030;7.024;2023-12-07T06:14:48;11.13;;;5.30;;
72127;SDS011;60000;51.030;7.024;2023-12-07T06:17:14;11.25;;;5.65;;
72127;SDS011;60000;51.030;7.024;2023-12-07T06:19:39;10.70;;;5.43;;
72127;SDS011;60000;51.030;7.024;2023-12-07T06:22:04;10.60;;;6.00;;
72127;SDS011;60000;51.030;7.024;2023-12-07T06:24:30;14.13;;;7.20;;
72127;SDS011;60000;51.030;7.024;2023-12-07T06:26:57;14.75;;;7.35;;
72127;SDS011;60000;51.030;7.024;2023-12-07T06:29:23;11.43;;;5.78;;
72127;SDS011;60000;51.030;7.024;2023-12-07T06:31:48;11.47;;;5.73;;
72127;SDS011;60000;51.030;7.024;2023-12-07T06:34:13;10.27;;;5.07;;
72127;SDS011;60000;51.030;7.024;2023-12-07T06:36:38;12.73;;;5.10;;
72127;SDS011;60000;51.030;7.024;2023-12-07T06:39:04;11.73;;;5.30;;
72127;SDS011;60000;51.030;7.024;2023-12-07T06:41:29;11.00;;;5.60;;
72127;SDS011;60000;51.030;7.024;2023-12-07T06:43:55;12.98;;;6.60;;
72127;SDS011;60000;51.030;7.024;2023-12-07T06:46:20;12.53;;;6.07;;
72127;SDS011;60000;51.030;7.024;2023-12-07T06:48:45;16.50;;;7.70;;
72127;SDS011;60000;51.030;7.024;2023-12-07T06:51:11;14.03;;;6.90;;
72127;SDS011;60000;51.030;7.024;2023-12-07T06:53:39;16.37;;;7.47;;
72127;SDS011;60000;51.030;7.024;2023-12-07T06:56:05;18.63;;;7.68;;
72127;SDS011;60000;51.030;7.024;2023-12-07T06:58:31;14.82;;;7.38;;
72127;SDS011;60000;51.030;7.024;2023-12-07T07:00:56;15.55;;;8.00;;
72127;SDS011;60000;51.030;7.024;2023-12-07T07:03:22;14.95;;;7.80;;
72127;SDS011;60000;51.030;7.024;2023-12-07T07:05:47;15.43;;;6.87;;
72127;SDS011;60000;51.030;7.024;2023-12-07T07:08:13;14.30;;;6.73;;
72127;SDS011;60000;51.030;7.024;2023-12-07T07:10:38;15.27;;;7.17;;
72127;SDS011;60000;51.030;7.024;2023-12-07T07:13:03;14.70;;;6.93;;
72127;SDS011;60000;51.030;7.024;2023-12-07T07:15:30;16.05;;;7.63;;
72127;SDS011;60000;51.030;7.024;2023-12-07T07:17:55;18.60;;;7.82;;
72127;SDS011;60000;51.030;7.024;2023-12-07T07:20:21;16.27;;;7.57;;
72127;SDS011;60000;51.030;7.024;2023-12-07T07:22:47;18.17;;;8.32;;
72127;SDS011;60000;51.030;7.024;2023-12-07T07:25:12;21.20;;;9.27;;
72127;SDS011;60000;51.030;7.024;2023-12-07T07:27:40;14.82;;;7.43;;
72127;SDS011;60000;51.030;7.024;2023-12-07T07:30:05;17.27;;;7.53;;
72127;SDS011;60000;51.030;7.024;2023-12-07T07:32:31;16.15;;;7.47;;
72127;SDS011;60000;51.030;7.024;2023-12-07T07:34:57;16.93;;;7.70;;
72127;SDS011;60000;51.030;7.024;2023-12-07T07:37:22;16.43;;;7.13;;
72127;SDS011;60000;51.030;7.024;2023-12-07T07:39:47;14.97;;;7.87;;
72127;SDS011;60000;51.030;7.024;2023-12-07T07:42:12;16.60;;;8.00;;
72127;SDS011;60000;51.030;7.024;2023-12-07T07:44:38;14.47;;;7.27;;
72127;SDS011;60000;51.030;7.024;2023-12-07T07:47:03;16.67;;;7.55;;
72127;SDS011;60000;51.030;7.024;2023-12-07T07:49:29;14.70;;;7.28;;
72127;SDS011;60000;51.030;7.024;2023-12-07T07:51:54;16.23;;;7.30;;
72127;SDS011;60000;51.030;7.024;2023-12-07T07:54:19;14.40;;;7.10;;
72127;SDS011;60000;51.030;7.024;2023-12-07T07:56:45;16.80;;;7.40;;
72127;SDS011;60000;51.030;7.024;2023-12-07T07:59:10;17.17;;;7.30;;
72127;SDS011;60000;51.030;7.024;2023-12-07T08:01:36;16.58;;;7.72;;
72127;SDS011;60000;51.030;7.024;2023-12-07T08:04:01;15.40;;;7.57;;
72127;SDS011;60000;51.030;7.024;2023-12-07T08:06:27;17.23;;;8.57;;
72127;SDS011;60000;51.030;7.024;2023-12-07T08:08:52;17.20;;;7.63;;
72127;SDS011;60000;51.030;7.024;2023-12-07T08:11:17;18.15;;;8.32;;
72127;SDS011;60000;51.030;7.024;2023-12-07T08:13:42;17.08;;;7.38;;
72127;SDS011;60000;51.030;7.024;2023-12-07T08:16:08;16.83;;;7.40;;
72127;SDS011;60000;51.030;7.024;2023-12-07T08:18:34;16.23;;;8.27;;
72127;SDS011;60000;51.030;7.024;2023-12-07T08:20:59;18.52;;;8.27;;
72127;SDS011;60000;51.030;7.024;2023-12-07T08:23:25;19.13;;;8.47;;
72127;SDS011;60000;51.030;7.024;2023-12-07T08:25:50;17.40;;;8.43;;
72127;SDS011;60000;51.030;7.024;2023-12-07T08:28:15;20.70;;;8.30;;
72127;SDS011;60000;51.030;7.024;2023-12-07T08:30:41;19.63;;;8.60;;
72127;SDS011;60000;51.030;7.024;2023-12-07T08:33:06;16.93;;;7.87;;
72127;SDS011;60000;51.030;7.024;2023-12-07T08:35:31;17.40;;;8.07;;
72127;SDS011;60000;51.030;7.024;2023-12-07T08:37:56;16.73;;;8.40;;
72127;SDS011;60000;51.030;7.024;2023-12-07T08:40:22;19.20;;;8.73;;
72127;SDS011;60000;51.030;7.024;2023-12-07T08:42:47;20.20;;;8.97;;
72127;SDS011;60000;51.030;7.024;2023-12-07T08:45:13;19.75;;;9.20;;
72127;SDS011;60000;51.030;7.024;2023-12-07T08:47:39;19.17;;;8.67;;
72127;SDS011;60000;51.030;7.024;2023-12-07T08:50:04;19.60;;;8.18;;
72127;SDS011;60000;51.030;7.024;2023-12-07T08:52:32;24.60;;;9.65;;
72127;SDS011;60000;51.030;7.024;2023-12-07T08:54:58;18.50;;;8.17;;
72127;SDS011;60000;51.030;7.024;2023-12-07T08:57:23;19.93;;;9.27;;
72127;SDS011;60000;51.030;7.024;2023-12-07T08:59:48;21.57;;;8.67;;
72127;SDS011;60000;51.030;7.024;2023-12-07T09:02:14;18.63;;;8.30;;
72127;SDS011;60000;51.030;7.024;2023-12-07T09:04:39;18.70;;;8.73;;
72127;SDS011;60000;51.030;7.024;2023-12-07T09:07:05;20.43;;;9.57;;
72127;SDS011;60000;51.030;7.024;2023-12-07T09:09:30;19.23;;;8.70;;
72127;SDS011;60000;51.030;7.024;2023-12-07T09:11:56;19.55;;;8.45;;
72127;SDS011;60000;51.030;7.024;2023-12-07T09:14:21;17.27;;;8.37;;
72127;SDS011;60000;51.030;7.024;2023-12-07T09:16:47;16.43;;;8.30;;
72127;SDS011;60000;51.030;7.024;2023-12-07T09:19:12;18.77;;;8.70;;
72127;SDS011;60000;51.030;7.024;2023-12-07T09:21:39;22.02;;;9.18;;
72127;SDS011;60000;51.030;7.024;2023-12-07T09:24:05;22.27;;;9.93;;
72127;SDS011;60000;51.030;7.024;2023-12-07T09:26:33;17.30;;;8.57;;
72127;SDS011;60000;51.030;7.024;2023-12-07T09:28:59;20.17;;;9.07;;
72127;SDS011;60000;51.030;7.024;2023-12-07T09:31:24;18.27;;;8.63;;
72127;SDS011;60000;51.030;7.024;2023-12-07T09:33:50;17.73;;;8.87;;
72127;SDS011;60000;51.030;7.024;2023-12-07T09:36:17;20.25;;;8.77;;
72127;SDS011;60000;51.030;7.024;2023-12-07T09:38:43;18.10;;;8.48;;
72127;SDS011;60000;51.030;7.024;2023-12-07T09:41:09;16.53;;;8.10;;
72127;SDS011;60000;51.030;7.024;2023-12-07T09:43:34;16.80;;;7.73;;
72127;SDS011;60000;51.030;7.024;2023-12-07T09:46:00;16.75;;;9.05;;
72127;SDS011;60000;51.030;7.024;2023-12-07T09:48:25;17.43;;;8.30;;
72127;SDS011;60000;51.030;7.024;2023-12-07T09:50:51;17.60;;;8.57;;
72127;SDS011;60000;51.030;7.024;2023-12-07T09:53:17;18.88;;;8.35;;
72127;SDS011;60000;51.030;7.024;2023-12-07T09:55:43;17.67;;;8.27;;
72127;SDS011;60000;51.030;7.024;2023-12-07T09:58:08;16.83;;;8.33;;
72127;SDS011;60000;51.030;7.024;2023-12-07T10:00:34;16.85;;;8.45;;
72127;SDS011;60000;51.030;7.024;2023-12-07T10:03:00;15.98;;;8.18;;
72127;SDS011;60000;51.030;7.024;2023-12-07T10:05:25;15.83;;;7.77;;
72127;SDS011;60000;51.030;7.024;2023-12-07T10:07:50;18.83;;;8.75;;
72127;SDS011;60000;51.030;7.024;2023-12-07T10:10:16;20.00;;;9.10;;
72127;SDS011;60000;51.030;7.024;2023-12-07T10:12:46;17.20;;;8.07;;
72127;SDS011;60000;51.030;7.024;2023-12-07T10:15:12;23.60;;;9.90;;
72127;SDS011;60000;51.030;7.024;2023-12-07T10:20:17;17.38;;;8.60;;
72127;SDS011;60000;51.030;7.024;2023-12-07T10:22:47;17.50;;;8.35;;
72127;SDS011;60000;51.030;7.024;2023-12-07T10:25:12;17.83;;;9.03;;
72127;SDS011;60000;51.030;7.024;2023-12-07T10:27:39;18.05;;;8.80;;
72127;SDS011;60000;51.030;7.024;2023-12-07T10:30:08;17.42;;;7.95;;
72127;SDS011;60000;51.030;7.024;2023-12-07T10:32:38;19.10;;;8.85;;
72127;SDS011;60000;51.030;7.024;2023-12-07T10:35:06;16.00;;;7.75;;
72127;SDS011;60000;51.030;7.024;2023-12-07T10:37:32;18.50;;;8.53;;
72127;SDS011;60000;51.030;7.024;2023-12-07T10:39:57;16.70;;;8.38;;
72127;SDS011;60000;51.030;7.024;2023-12-07T10:42:23;20.33;;;8.60;;
72127;SDS011;60000;51.030;7.024;2023-12-07T10:44:50;19.88;;;8.50;;
72127;SDS011;60000;51.030;7.024;2023-12-07T10:47:18;17.23;;;8.03;;
72127;SDS011;60000;51.030;7.024;2023-12-07T10:49:44;16.80;;;7.53;;
72127;SDS011;60000;51.030;7.024;2023-12-07T10:52:13;15.75;;;7.72;;
72127;SDS011;60000;51.030;7.024;2023-12-07T10:54:43;16.92;;;7.25;;
72127;SDS011;60000;51.030;7.024;2023-12-07T10:57:17;14.65;;;7.28;;
72127;SDS011;60000;51.030;7.024;2023-12-07T10:59:44;14.83;;;6.83;;
72127;SDS011;60000;51.030;7.024;2023-12-07T11:02:12;17.75;;;7.20;;
72127;SDS011;60000;51.030;7.024;2023-12-07T11:04:39;17.00;;;7.97;;
72127;SDS011;60000;51.030;7.024;2023-12-07T11:07:07;16.90;;;7.88;;
72127;SDS011;60000;51.030;7.024;2023-12-07T11:09:38;17.60;;;7.57;;
72127;SDS011;60000;51.030;7.024;2023-12-07T11:12:14;15.00;;;7.47;;
72127;SDS011;60000;51.030;7.024;2023-12-07T11:14:43;15.13;;;7.60;;
72127;SDS011;60000;51.030;7.024;2023-12-07T11:17:09;15.07;;;7.65;;
72127;SDS011;60000;51.030;7.024;2023-12-07T11:22:01;17.03;;;7.87;;
72127;SDS011;60000;51.030;7.024;2023-12-07T11:24:29;14.32;;;6.97;;
72127;SDS011;60000;51.030;7.024;2023-12-07T11:26:57;15.77;;;7.17;;
72127;SDS011;60000;51.030;7.024;2023-12-07T11:29:27;18.97;;;7.80;;
72127;SDS011;60000;51.030;7.024;2023-12-07T11:32:00;15.55;;;7.95;;
72127;SDS011;60000;51.030;7.024;2023-12-07T11:34:33;14.88;;;7.20;;
72127;SDS011;60000;51.030;7.024;2023-12-07T11:36:59;14.95;;;7.15;;
72127;SDS011;60000;51.030;7.024;2023-12-07T11:39:31;15.00;;;7.40;;
72127;SDS011;60000;51.030;7.024;2023-12-07T11:42:06;15.87;;;7.10;;
72127;SDS011;60000;51.030;7.024;2023-12-07T11:44:33;14.63;;;6.50;;
72127;SDS011;60000;51.030;7.024;2023-12-07T11:47:02;15.80;;;7.20;;
72127;SDS011;60000;51.030;7.024;2023-12-07T11:49:28;16.90;;;6.53;;
72127;SDS011;60000;51.030;7.024;2023-12-07T11:51:54;16.37;;;7.33;;
72127;SDS011;60000;51.030;7.024;2023-12-07T11:54:19;13.48;;;6.63;;
72127;SDS011;60000;51.030;7.024;2023-12-07T11:56:46;12.68;;;6.72;;
72127;SDS011;60000;51.030;7.024;2023-12-07T11:59:17;14.07;;;6.97;;
72127;SDS011;60000;51.030;7.024;2023-12-07T12:01:46;14.43;;;6.40;;
72127;SDS011;60000;51.030;7.024;2023-12-07T12:04:12;15.73;;;7.00;;
72127;SDS011;60000;51.030;7.024;2023-12-07T12:06:37;12.53;;;6.40;;
72127;SDS011;60000;51.030;7.024;2023-12-07T12:09:02;13.60;;;6.67;;
72127;SDS011;60000;51.030;7.024;2023-12-07T12:11:28;15.37;;;7.43;;
72127;SDS011;60000;51.030;7.024;2023-12-07T12:13:53;13.40;;;6.50;;
72127;SDS011;60000;51.030;7.024;2023-12-07T12:16:19;13.63;;;6.23;;
72127;SDS011;60000;51.030;7.024;2023-12-07T12:18:44;13.27;;;5.73;;
72127;SDS011;60000;51.030;7.024;2023-12-07T12:21:10;12.27;;;5.90;;
72127;SDS011;60000;51.030;7.024;2023-12-07T12:23:35;12.80;;;6.80;;
72127;SDS011;60000;51.030;7.024;2023-12-07T12:26:01;12.95;;;6.28;;
72127;SDS011;60000;51.030;7.024;2023-12-07T12:28:27;11.07;;;5.33;;
72127;SDS011;60000;51.030;7.024;2023-12-07T12:30:52;12.10;;;5.72;;
72127;SDS011;60000;51.030;7.024;2023-12-07T12:33:18;12.68;;;5.68;;
72127;SDS011;60000;51.030;7.024;2023-12-07T12:35:43;11.53;;;5.53;;
72127;SDS011;60000;51.030;7.024;2023-12-07T12:38:09;12.70;;;5.43;;
72127;SDS011;60000;51.030;7.024;2023-12-07T12:40:38;12.97;;;5.77;;
72127;SDS011;60000;51.030;7.024;2023-12-07T12:43:04;10.32;;;5.47;;
72127;SDS011;60000;51.030;7.024;2023-12-07T12:45:29;13.40;;;5.87;;
72127;SDS011;60000;51.030;7.024;2023-12-07T12:47:55;10.77;;;5.90;;
72127;SDS011;60000;51.030;7.024;2023-12-07T12:50:34;10.45;;;5.40;;
72127;SDS011;60000;51.030;7.024;2023-12-07T12:53:05;11.88;;;5.28;;
72127;SDS011;60000;51.030;7.024;2023-12-07T12:55:33;10.20;;;4.80;;
72127;SDS011;60000;51.030;7.024;2023-12-07T12:58:00;10.83;;;5.30;;
72127;SDS011;60000;51.030;7.024;2023-12-07T13:00:26;11.27;;;5.10;;
72127;SDS011;60000;51.030;7.024;2023-12-07T13:02:51;9.87;;;5.23;;
72127;SDS011;60000;51.030;7.024;2023-12-07T13:05:17;10.40;;;5.00;;
72127;SDS011;60000;51.030;7.024;2023-12-07T13:07:43;10.23;;;5.07;;
72127;SDS011;60000;51.030;7.024;2023-12-07T13:10:09;12.38;;;5.32;;
72127;SDS011;60000;51.030;7.024;2023-12-07T13:12:35;12.55;;;5.10;;
72127;SDS011;60000;51.030;7.024;2023-12-07T13:15:01;10.60;;;4.63;;
72127;SDS011;60000;51.030;7.024;2023-12-07T13:17:26;13.47;;;5.27;;
72127;SDS011;60000;51.030;7.024;2023-12-07T13:19:51;11.32;;;4.90;;
72127;SDS011;60000;51.030;7.024;2023-12-07T13:22:17;9.83;;;4.57;;
72127;SDS011;60000;51.030;7.024;2023-12-07T13:24:43;10.43;;;4.63;;
72127;SDS011;60000;51.030;7.024;2023-12-07T13:27:08;10.00;;;4.72;;
72127;SDS011;60000;51.030;7.024;2023-12-07T13:29:34;10.63;;;4.70;;
72127;SDS011;60000;51.030;7.024;2023-12-07T13:31:59;9.23;;;4.30;;
72127;SDS011;60000;51.030;7.024;2023-12-07T13:34:24;9.33;;;4.20;;
72127;SDS011;60000;51.030;7.024;2023-12-07T13:36:51;10.43;;;4.60;;
72127;SDS011;60000;51.030;7.024;2023-12-07T13:39:16;10.93;;;4.70;;
72127;SDS011;60000;51.030;7.024;2023-12-07T13:41:41;12.60;;;4.37;;
72127;SDS011;60000;51.030;7.024;2023-12-07T13:44:06;9.53;;;4.30;;
72127;SDS011;60000;51.030;7.024;2023-12-07T13:46:32;11.23;;;4.93;;
72127;SDS011;60000;51.030;7.024;2023-12-07T13:48:58;9.45;;;4.25;;
72127;SDS011;60000;51.030;7.024;2023-12-07T13:51:23;9.10;;;4.67;;
72127;SDS011;60000;51.030;7.024;2023-12-07T13:53:48;11.10;;;4.70;;
72127;SDS011;60000;51.030;7.024;2023-12-07T13:56:20;10.50;;;4.75;;
72127;SDS011;60000;51.030;7.024;2023-12-07T13:58:45;11.00;;;4.30;;
72127;SDS011;60000;51.030;7.024;2023-12-07T14:01:11;11.98;;;4.47;;
72127;SDS011;60000;51.030;7.024;2023-12-07T14:03:36;9.80;;;4.40;;
72127;SDS011;60000;51.030;7.024;2023-12-07T14:06:02;9.93;;;4.70;;
72127;SDS011;60000;51.030;7.024;2023-12-07T14:08:27;11.55;;;4.93;;
72127;SDS011;60000;51.030;7.024;2023-12-07T14:10:55;10.07;;;3.90;;
72127;SDS011;60000;51.030;7.024;2023-12-07T14:13:21;8.75;;;4.20;;
72127;SDS011;60000;51.030;7.024;2023-12-07T14:15:46;9.93;;;4.65;;
72127;SDS011;60000;51.030;7.024;2023-12-07T14:18:11;10.50;;;4.50;;
72127;SDS011;60000;51.030;7.024;2023-12-07T14:20:40;12.57;;;4.80;;
72127;SDS011;60000;51.030;7.024;2023-12-07T14:23:06;9.18;;;4.25;;
72127;SDS011;60000;51.030;7.024;2023-12-07T14:25:32;10.95;;;4.65;;
72127;SDS011;60000;51.030;7.024;2023-12-07T14:27:58;11.48;;;4.22;;
72127;SDS011;60000;51.030;7.024;2023-12-07T14:30:23;8.50;;;3.93;;
72127;SDS011;60000;51.030;7.024;2023-12-07T14:32:49;9.83;;;4.33;;
72127;SDS011;60000;51.030;7.024;2023-12-07T14:35:16;11.50;;;4.25;;
72127;SDS011;60000;51.030;7.024;2023-12-07T14:37:45;8.25;;;3.63;;